sensor_id;sensor_type;location;lat;lon;timestamp;temperature;humidity
7894;DHT22;51343;51.396;6.656;2023-07-28T00:01:27;17.00;99.90
7894;DHT22;51343;51.396;6.656;2023-07-28T00:03:53;17.00;99.90
7894;DHT22;51343;51.396;6.656;2023-07-28T00:06:23;16.90;99.90
7894;DHT22;51343;51.396;6.656;2023-07-28T00:08:50;17.00;99.90
7894;DHT22;51343;51.396;6.656;2023-07-28T00:11:16;16.90;99.90
7894;DHT22;51343;51.396;6.656;2023-07-28T00:13:43;17.00;99.90
7894;DHT22;51343;51.396;6.656;2023-07-28T00:16:10;17.00;99.90
7894;DHT22;51343;51.396;6.656;2023-07-28T00:18:38;16.90;99.90
7894;DHT22;51343;51.396;6.656;2023-07-28T00:21:05;16.90;99.90
7894;DHT22;51343;51.396;6.656;2023-07-28T00:23:32;17.00;99.90
7894;DHT22;51343;51.396;6.656;2023-07-28T00:25:59;16.90;99.90
7894;DHT22;51343;51.396;6.656;2023-07-28T00:28:26;17.00;99.90
7894;DHT22;51343;51.396;6.656;2023-07-28T00:30:52;17.00;99.90
7894;DHT22;51343;51.396;6.656;2023-07-28T00:33:19;17.00;99.90
7894;DHT22;51343;51.396;6.656;2023-07-28T00:35:47;17.00;99.90
7894;DHT22;51343;51.396;6.656;2023-07-28T00:38:15;16.90;99.90
7894;DHT22;51343;51.396;6.656;2023-07-28T00:40:41;16.90;99.90
7894;DHT22;51343;51.396;6.656;2023-07-28T00:43:08;17.00;99.90
7894;DHT22;51343;51.396;6.656;2023-07-28T00:45:35;17.00;99.90
7894;DHT22;51343;51.396;6.656;2023-07-28T00:48:02;17.00;99.90
7894;DHT22;51343;51.396;6.656;2023-07-28T00:50:29;17.00;99.90
7894;DHT22;51343;51.396;6.656;2023-07-28T00:52:57;16.90;99.90
7894;DHT22;51343;51.396;6.656;2023-07-28T00:55:24;17.00;99.90
7894;DHT22;51343;51.396;6.656;2023-07-28T00:57:51;16.90;99.90
7894;DHT22;51343;51.396;6.656;2023-07-28T01:00:17;17.00;99.90
7894;DHT22;51343;51.396;6.656;2023-07-28T01:02:44;16.90;99.90
7894;DHT22;51343;51.396;6.656;2023-07-28T01:05:11;17.00;99.90
7894;DHT22;51343;51.396;6.656;2023-07-28T01:07:39;17.00;99.90
7894;DHT22;51343;51.396;6.656;2023-07-28T01:10:10;17.00;99.90
7894;DHT22;51343;51.396;6.656;2023-07-28T01:12:38;17.00;99.90
7894;DHT22;51343;51.396;6.656;2023-07-28T01:15:05;17.00;99.90
7894;DHT22;51343;51.396;6.656;2023-07-28T01:17:32;17.00;99.90
7894;DHT22;51343;51.396;6.656;2023-07-28T01:19:59;17.00;99.90
7894;DHT22;51343;51.396;6.656;2023-07-28T01:22:31;17.00;99.90
7894;DHT22;51343;51.396;6.656;2023-07-28T01:25:02;17.00;99.90
7894;DHT22;51343;51.396;6.656;2023-07-28T01:27:34;17.00;99.90
7894;DHT22;51343;51.396;6.656;2023-07-28T01:30:00;17.00;99.90
7894;DHT22;51343;51.396;6.656;2023-07-28T01:32:27;17.00;99.90
7894;DHT22;51343;51.396;6.656;2023-07-28T01:34:54;17.00;99.90
7894;DHT22;51343;51.396;6.656;2023-07-28T01:37:21;17.00;99.90
7894;DHT22;51343;51.396;6.656;2023-07-28T01:39:48;17.00;99.90
7894;DHT22;51343;51.396;6.656;2023-07-28T01:42:15;17.00;99.90
7894;DHT22;51343;51.396;6.656;2023-07-28T01:44:43;17.00;99.90
7894;DHT22;51343;51.396;6.656;2023-07-28T01:47:12;17.00;99.90
7894;DHT22;51343;51.396;6.656;2023-07-28T01:49:42;17.00;99.90
7894;DHT22;51343;51.396;6.656;2023-07-28T01:52:09;17.00;99.90
7894;DHT22;51343;51.396;6.656;2023-07-28T01:54:35;17.00;99.90
7894;DHT22;51343;51.396;6.656;2023-07-28T01:57:02;17.00;99.90
7894;DHT22;51343;51.396;6.656;2023-07-28T01:59:29;17.00;99.90
7894;DHT22;51343;51.396;6.656;2023-07-28T02:01:57;17.00;99.90
7894;DHT22;51343;51.396;6.656;2023-07-28T02:04:24;17.00;99.90
7894;DHT22;51343;51.396;6.656;2023-07-28T02:06:51;17.00;99.90
7894;DHT22;51343;51.396;6.656;2023-07-28T02:09:19;17.00;99.90
7894;DHT22;51343;51.396;6.656;2023-07-28T02:11:45;17.00;99.90
7894;DHT22;51343;51.396;6.656;2023-07-28T02:14:12;17.00;99.90
7894;DHT22;51343;51.396;6.656;2023-07-28T02:16:39;17.00;99.90
7894;DHT22;51343;51.396;6.656;2023-07-28T02:19:07;17.00;99.90
7894;DHT22;51343;51.396;6.656;2023-07-28T02:21:33;17.00;99.90
7894;DHT22;51343;51.396;6.656;2023-07-28T02:24:00;17.00;99.90
7894;DHT22;51343;51.396;6.656;2023-07-28T02:26:27;17.00;99.90
7894;DHT22;51343;51.396;6.656;2023-07-28T02:28:53;17.00;99.90
7894;DHT22;51343;51.396;6.656;2023-07-28T02:31:20;17.00;99.90
7894;DHT22;51343;51.396;6.656;2023-07-28T02:33:47;17.00;99.90
7894;DHT22;51343;51.396;6.656;2023-07-28T02:36:15;17.00;99.90
7894;DHT22;51343;51.396;6.656;2023-07-28T02:38:41;17.00;99.90
7894;DHT22;51343;51.396;6.656;2023-07-28T02:41:08;17.00;99.90
7894;DHT22;51343;51.396;6.656;2023-07-28T02:43:35;17.00;99.90
7894;DHT22;51343;51.396;6.656;2023-07-28T02:46:01;17.00;99.90
7894;DHT22;51343;51.396;6.656;2023-07-28T02:48:28;17.10;99.90
7894;DHT22;51343;51.396;6.656;2023-07-28T02:50:55;17.10;99.90
7894;DHT22;51343;51.396;6.656;2023-07-28T02:53:23;17.00;99.90
7894;DHT22;51343;51.396;6.656;2023-07-28T02:55:49;17.10;99.90
7894;DHT22;51343;51.396;6.656;2023-07-28T02:58:16;17.10;99.90
7894;DHT22;51343;51.396;6.656;2023-07-28T03:00:43;17.10;99.90
7894;DHT22;51343;51.396;6.656;2023-07-28T03:03:11;17.10;99.90
7894;DHT22;51343;51.396;6.656;2023-07-28T03:05:38;17.10;99.90
7894;DHT22;51343;51.396;6.656;2023-07-28T03:08:05;17.00;99.90
7894;DHT22;51343;51.396;6.656;2023-07-28T03:10:33;17.00;99.90
7894;DHT22;51343;51.396;6.656;2023-07-28T03:13:00;17.10;99.90
7894;DHT22;51343;51.396;6.656;2023-07-28T03:15:27;17.10;99.90
7894;DHT22;51343;51.396;6.656;2023-07-28T03:17:54;17.10;99.90
7894;DHT22;51343;51.396;6.656;2023-07-28T03:20:20;17.00;99.90
7894;DHT22;51343;51.396;6.656;2023-07-28T03:22:47;17.00;99.90
7894;DHT22;51343;51.396;6.656;2023-07-28T03:25:14;17.10;99.90
7894;DHT22;51343;51.396;6.656;2023-07-28T03:27:42;17.00;99.90
7894;DHT22;51343;51.396;6.656;2023-07-28T03:30:08;17.10;99.90
7894;DHT22;51343;51.396;6.656;2023-07-28T03:32:35;17.10;99.90
7894;DHT22;51343;51.396;6.656;2023-07-28T03:35:02;17.10;99.90
7894;DHT22;51343;51.396;6.656;2023-07-28T03:37:30;17.10;99.90
7894;DHT22;51343;51.396;6.656;2023-07-28T03:39:57;17.10;99.90
7894;DHT22;51343;51.396;6.656;2023-07-28T03:42:23;17.10;99.90
7894;DHT22;51343;51.396;6.656;2023-07-28T03:44:51;17.10;99.90
7894;DHT22;51343;51.396;6.656;2023-07-28T03:47:18;17.00;99.90
7894;DHT22;51343;51.396;6.656;2023-07-28T03:49:45;17.10;99.90
7894;DHT22;51343;51.396;6.656;2023-07-28T03:52:11;17.10;99.90
7894;DHT22;51343;51.396;6.656;2023-07-28T03:54:38;17.10;99.90
7894;DHT22;51343;51.396;6.656;2023-07-28T03:57:05;17.10;99.90
7894;DHT22;51343;51.396;6.656;2023-07-28T03:59:32;17.10;99.90
7894;DHT22;51343;51.396;6.656;2023-07-28T04:01:59;17.10;99.90
7894;DHT22;51343;51.396;6.656;2023-07-28T04:04:26;17.10;99.90
7894;DHT22;51343;51.396;6.656;2023-07-28T04:06:53;17.10;99.90
7894;DHT22;51343;51.396;6.656;2023-07-28T04:09:19;17.10;99.90
7894;DHT22;51343;51.396;6.656;2023-07-28T04:11:46;17.10;99.90
7894;DHT22;51343;51.396;6.656;2023-07-28T04:14:13;17.10;99.90
7894;DHT22;51343;51.396;6.656;2023-07-28T04:16:39;17.10;99.90
7894;DHT22;51343;51.396;6.656;2023-07-28T04:19:07;17.10;99.90
7894;DHT22;51343;51.396;6.656;2023-07-28T04:21:34;17.20;99.90
7894;DHT22;51343;51.396;6.656;2023-07-28T04:24:05;17.20;99.90
7894;DHT22;51343;51.396;6.656;2023-07-28T04:26:32;17.20;99.90
7894;DHT22;51343;51.396;6.656;2023-07-28T04:28:58;17.20;99.90
7894;DHT22;51343;51.396;6.656;2023-07-28T04:31:25;17.10;99.90
7894;DHT22;51343;51.396;6.656;2023-07-28T04:33:51;17.20;99.90
7894;DHT22;51343;51.396;6.656;2023-07-28T04:36:19;17.20;99.90
7894;DHT22;51343;51.396;6.656;2023-07-28T04:38:46;17.20;99.90
7894;DHT22;51343;51.396;6.656;2023-07-28T04:41:13;17.20;99.90
7894;DHT22;51343;51.396;6.656;2023-07-28T04:43:39;17.30;99.90
7894;DHT22;51343;51.396;6.656;2023-07-28T04:46:06;17.30;99.90
7894;DHT22;51343;51.396;6.656;2023-07-28T04:48:32;17.30;99.90
7894;DHT22;51343;51.396;6.656;2023-07-28T04:50:59;17.30;99.90
7894;DHT22;51343;51.396;6.656;2023-07-28T04:53:27;17.30;99.90
7894;DHT22;51343;51.396;6.656;2023-07-28T04:55:53;17.30;99.90
7894;DHT22;51343;51.396;6.656;2023-07-28T04:58:20;17.30;99.90
7894;DHT22;51343;51.396;6.656;2023-07-28T05:00:47;17.30;99.90
7894;DHT22;51343;51.396;6.656;2023-07-28T05:03:13;17.30;99.90
7894;DHT22;51343;51.396;6.656;2023-07-28T05:05:42;17.40;99.90
7894;DHT22;51343;51.396;6.656;2023-07-28T05:08:09;17.40;99.90
7894;DHT22;51343;51.396;6.656;2023-07-28T05:10:37;17.40;99.90
7894;DHT22;51343;51.396;6.656;2023-07-28T05:13:04;17.40;99.90
7894;DHT22;51343;51.396;6.656;2023-07-28T05:15:30;17.40;99.90
7894;DHT22;51343;51.396;6.656;2023-07-28T05:17:57;17.40;99.90
7894;DHT22;51343;51.396;6.656;2023-07-28T05:20:23;17.50;99.90
7894;DHT22;51343;51.396;6.656;2023-07-28T05:22:50;17.50;99.90
7894;DHT22;51343;51.396;6.656;2023-07-28T05:25:17;17.60;99.90
7894;DHT22;51343;51.396;6.656;2023-07-28T05:27:45;17.50;99.90
7894;DHT22;51343;51.396;6.656;2023-07-28T05:30:11;17.50;99.90
7894;DHT22;51343;51.396;6.656;2023-07-28T05:32:38;17.50;99.90
7894;DHT22;51343;51.396;6.656;2023-07-28T05:35:05;17.50;99.90
7894;DHT22;51343;51.396;6.656;2023-07-28T05:37:31;17.50;99.90
7894;DHT22;51343;51.396;6.656;2023-07-28T05:39:58;17.60;99.90
7894;DHT22;51343;51.396;6.656;2023-07-28T05:42:25;17.60;99.90
7894;DHT22;51343;51.396;6.656;2023-07-28T05:44:53;17.50;99.90
7894;DHT22;51343;51.396;6.656;2023-07-28T05:47:20;17.60;99.90
7894;DHT22;51343;51.396;6.656;2023-07-28T05:49:47;17.60;99.90
7894;DHT22;51343;51.396;6.656;2023-07-28T05:52:13;17.60;99.90
7894;DHT22;51343;51.396;6.656;2023-07-28T05:54:40;17.60;99.90
7894;DHT22;51343;51.396;6.656;2023-07-28T05:57:07;17.60;99.90
7894;DHT22;51343;51.396;6.656;2023-07-28T05:59:33;17.60;99.90
7894;DHT22;51343;51.396;6.656;2023-07-28T06:02:01;17.60;99.90
7894;DHT22;51343;51.396;6.656;2023-07-28T06:04:28;17.60;99.90
7894;DHT22;51343;51.396;6.656;2023-07-28T06:06:55;17.60;99.90
7894;DHT22;51343;51.396;6.656;2023-07-28T06:09:22;17.60;99.90
7894;DHT22;51343;51.396;6.656;2023-07-28T06:11:48;17.60;99.90
7894;DHT22;51343;51.396;6.656;2023-07-28T06:14:15;17.60;99.90
7894;DHT22;51343;51.396;6.656;2023-07-28T06:16:41;17.60;99.90
7894;DHT22;51343;51.396;6.656;2023-07-28T06:19:10;17.60;99.90
7894;DHT22;51343;51.396;6.656;2023-07-28T06:21:37;17.70;99.90
7894;DHT22;51343;51.396;6.656;2023-07-28T06:24:04;17.70;99.90
7894;DHT22;51343;51.396;6.656;2023-07-28T06:26:31;17.70;99.90
7894;DHT22;51343;51.396;6.656;2023-07-28T06:28:58;17.70;99.90
7894;DHT22;51343;51.396;6.656;2023-07-28T06:31:25;17.80;99.90
7894;DHT22;51343;51.396;6.656;2023-07-28T06:33:51;17.80;99.90
7894;DHT22;51343;51.396;6.656;2023-07-28T06:36:20;17.80;99.90
7894;DHT22;51343;51.396;6.656;2023-07-28T06:38:50;17.90;99.90
7894;DHT22;51343;51.396;6.656;2023-07-28T06:41:22;17.90;99.90
7894;DHT22;51343;51.396;6.656;2023-07-28T06:43:48;17.90;99.90
7894;DHT22;51343;51.396;6.656;2023-07-28T06:46:15;18.00;99.90
7894;DHT22;51343;51.396;6.656;2023-07-28T06:48:42;18.00;99.90
7894;DHT22;51343;51.396;6.656;2023-07-28T06:51:08;18.10;99.90
7894;DHT22;51343;51.396;6.656;2023-07-28T06:53:36;18.10;99.90
7894;DHT22;51343;51.396;6.656;2023-07-28T06:56:22;18.10;99.90
7894;DHT22;51343;51.396;6.656;2023-07-28T06:58:52;18.10;99.90
7894;DHT22;51343;51.396;6.656;2023-07-28T07:01:19;18.10;99.90
7894;DHT22;51343;51.396;6.656;2023-07-28T07:03:47;18.10;99.90
7894;DHT22;51343;51.396;6.656;2023-07-28T07:06:13;18.10;99.90
7894;DHT22;51343;51.396;6.656;2023-07-28T07:08:41;18.00;99.90
7894;DHT22;51343;51.396;6.656;2023-07-28T07:11:09;18.00;99.90
7894;DHT22;51343;51.396;6.656;2023-07-28T07:13:35;18.00;99.90
7894;DHT22;51343;51.396;6.656;2023-07-28T07:16:02;18.00;99.90
7894;DHT22;51343;51.396;6.656;2023-07-28T07:18:29;18.00;99.90
7894;DHT22;51343;51.396;6.656;2023-07-28T07:20:55;18.00;99.90
7894;DHT22;51343;51.396;6.656;2023-07-28T07:23:22;18.10;99.90
7894;DHT22;51343;51.396;6.656;2023-07-28T07:25:51;18.10;99.90
7894;DHT22;51343;51.396;6.656;2023-07-28T07:28:18;18.10;99.90
7894;DHT22;51343;51.396;6.656;2023-07-28T07:30:45;18.20;99.90
7894;DHT22;51343;51.396;6.656;2023-07-28T07:33:12;18.30;99.90
7894;DHT22;51343;51.396;6.656;2023-07-28T07:35:39;18.30;99.90
7894;DHT22;51343;51.396;6.656;2023-07-28T07:38:06;18.30;99.90
7894;DHT22;51343;51.396;6.656;2023-07-28T07:40:34;18.30;99.90
7894;DHT22;51343;51.396;6.656;2023-07-28T07:43:03;18.50;99.90
7894;DHT22;51343;51.396;6.656;2023-07-28T07:45:30;18.60;99.90
7894;DHT22;51343;51.396;6.656;2023-07-28T07:48:00;18.60;99.90
7894;DHT22;51343;51.396;6.656;2023-07-28T07:50:28;18.70;99.90
7894;DHT22;51343;51.396;6.656;2023-07-28T07:52:55;18.80;99.90
7894;DHT22;51343;51.396;6.656;2023-07-28T07:55:27;18.70;99.90
7894;DHT22;51343;51.396;6.656;2023-07-28T07:57:54;18.70;99.90
7894;DHT22;51343;51.396;6.656;2023-07-28T08:00:23;18.80;99.90
7894;DHT22;51343;51.396;6.656;2023-07-28T08:02:51;18.80;99.90
7894;DHT22;51343;51.396;6.656;2023-07-28T08:05:18;18.90;99.90
7894;DHT22;51343;51.396;6.656;2023-07-28T08:07:48;18.90;99.90
7894;DHT22;51343;51.396;6.656;2023-07-28T08:10:19;18.90;99.90
7894;DHT22;51343;51.396;6.656;2023-07-28T08:12:47;18.90;99.90
7894;DHT22;51343;51.396;6.656;2023-07-28T08:15:14;19.00;99.90
7894;DHT22;51343;51.396;6.656;2023-07-28T08:17:46;19.00;99.90
7894;DHT22;51343;51.396;6.656;2023-07-28T08:20:20;19.00;99.90
7894;DHT22;51343;51.396;6.656;2023-07-28T08:22:49;19.00;99.90
7894;DHT22;51343;51.396;6.656;2023-07-28T08:25:19;18.90;99.90
7894;DHT22;51343;51.396;6.656;2023-07-28T08:27:48;18.90;99.90
7894;DHT22;51343;51.396;6.656;2023-07-28T08:30:15;18.90;99.90
7894;DHT22;51343;51.396;6.656;2023-07-28T08:32:43;18.90;99.90
7894;DHT22;51343;51.396;6.656;2023-07-28T08:35:11;19.00;99.90
7894;DHT22;51343;51.396;6.656;2023-07-28T08:37:38;18.90;99.90
7894;DHT22;51343;51.396;6.656;2023-07-28T08:40:06;19.00;99.90
7894;DHT22;51343;51.396;6.656;2023-07-28T08:42:35;19.00;99.90
7894;DHT22;51343;51.396;6.656;2023-07-28T08:45:03;19.00;99.90
7894;DHT22;51343;51.396;6.656;2023-07-28T08:47:31;18.90;99.90
7894;DHT22;51343;51.396;6.656;2023-07-28T08:49:58;18.90;99.90
7894;DHT22;51343;51.396;6.656;2023-07-28T08:52:26;18.80;99.90
7894;DHT22;51343;51.396;6.656;2023-07-28T08:54:54;18.80;99.90
7894;DHT22;51343;51.396;6.656;2023-07-28T08:57:20;18.80;99.90
7894;DHT22;51343;51.396;6.656;2023-07-28T08:59:47;18.80;99.90
7894;DHT22;51343;51.396;6.656;2023-07-28T09:02:15;18.80;99.90
7894;DHT22;51343;51.396;6.656;2023-07-28T09:04:42;18.90;99.90
7894;DHT22;51343;51.396;6.656;2023-07-28T09:07:10;19.00;99.90
7894;DHT22;51343;51.396;6.656;2023-07-28T09:09:38;19.20;99.90
7894;DHT22;51343;51.396;6.656;2023-07-28T09:12:06;19.30;99.90
7894;DHT22;51343;51.396;6.656;2023-07-28T09:14:34;19.40;99.90
7894;DHT22;51343;51.396;6.656;2023-07-28T09:19:49;19.50;99.90
7894;DHT22;51343;51.396;6.656;2023-07-28T09:22:17;19.40;99.90
7894;DHT22;51343;51.396;6.656;2023-07-28T09:24:52;19.40;99.90
7894;DHT22;51343;51.396;6.656;2023-07-28T09:27:19;19.30;99.90
7894;DHT22;51343;51.396;6.656;2023-07-28T09:29:47;19.40;99.90
7894;DHT22;51343;51.396;6.656;2023-07-28T09:32:14;19.30;99.90
7894;DHT22;51343;51.396;6.656;2023-07-28T09:34:41;19.40;99.90
7894;DHT22;51343;51.396;6.656;2023-07-28T09:37:08;19.40;99.90
7894;DHT22;51343;51.396;6.656;2023-07-28T09:39:36;19.40;99.90
7894;DHT22;51343;51.396;6.656;2023-07-28T09:42:07;19.30;99.90
7894;DHT22;51343;51.396;6.656;2023-07-28T09:44:35;19.20;99.90
7894;DHT22;51343;51.396;6.656;2023-07-28T09:47:08;19.20;99.90
7894;DHT22;51343;51.396;6.656;2023-07-28T09:49:35;19.20;99.90
7894;DHT22;51343;51.396;6.656;2023-07-28T09:52:05;19.30;99.90
7894;DHT22;51343;51.396;6.656;2023-07-28T09:54:38;19.40;99.90
7894;DHT22;51343;51.396;6.656;2023-07-28T09:57:11;19.40;99.90
7894;DHT22;51343;51.396;6.656;2023-07-28T09:59:39;19.50;99.90
7894;DHT22;51343;51.396;6.656;2023-07-28T10:02:07;19.50;99.90
7894;DHT22;51343;51.396;6.656;2023-07-28T10:04:35;19.50;99.90
7894;DHT22;51343;51.396;6.656;2023-07-28T10:07:02;19.50;99.90
7894;DHT22;51343;51.396;6.656;2023-07-28T10:09:30;19.60;99.90
7894;DHT22;51343;51.396;6.656;2023-07-28T10:14:51;19.60;99.90
7894;DHT22;51343;51.396;6.656;2023-07-28T10:17:30;19.60;99.90
7894;DHT22;51343;51.396;6.656;2023-07-28T10:19:57;19.70;99.90
7894;DHT22;51343;51.396;6.656;2023-07-28T10:22:25;19.90;99.90
7894;DHT22;51343;51.396;6.656;2023-07-28T10:24:53;20.10;99.90
7894;DHT22;51343;51.396;6.656;2023-07-28T10:27:31;20.30;99.90
7894;DHT22;51343;51.396;6.656;2023-07-28T10:30:00;20.50;99.90
7894;DHT22;51343;51.396;6.656;2023-07-28T10:32:34;20.70;99.90
7894;DHT22;51343;51.396;6.656;2023-07-28T10:35:05;20.90;99.90
7894;DHT22;51343;51.396;6.656;2023-07-28T10:37:32;21.10;99.90
7894;DHT22;51343;51.396;6.656;2023-07-28T10:42:47;21.60;99.90
7894;DHT22;51343;51.396;6.656;2023-07-28T10:48:04;21.70;99.90
7894;DHT22;51343;51.396;6.656;2023-07-28T10:50:34;21.60;99.90
7894;DHT22;51343;51.396;6.656;2023-07-28T10:53:00;21.40;99.90
7894;DHT22;51343;51.396;6.656;2023-07-28T10:55:27;21.30;99.90
7894;DHT22;51343;51.396;6.656;2023-07-28T10:57:54;21.20;99.90
7894;DHT22;51343;51.396;6.656;2023-07-28T11:00:23;21.20;99.90
7894;DHT22;51343;51.396;6.656;2023-07-28T11:02:50;21.30;99.90
7894;DHT22;51343;51.396;6.656;2023-07-28T11:05:23;21.30;99.90
7894;DHT22;51343;51.396;6.656;2023-07-28T11:07:51;21.30;99.90
7894;DHT22;51343;51.396;6.656;2023-07-28T11:10:18;21.20;99.90
7894;DHT22;51343;51.396;6.656;2023-07-28T11:12:46;21.10;99.90
7894;DHT22;51343;51.396;6.656;2023-07-28T11:15:13;20.90;99.90
7894;DHT22;51343;51.396;6.656;2023-07-28T11:17:41;20.80;99.90
7894;DHT22;51343;51.396;6.656;2023-07-28T11:20:14;20.70;99.90
7894;DHT22;51343;51.396;6.656;2023-07-28T11:22:43;20.60;99.90
7894;DHT22;51343;51.396;6.656;2023-07-28T11:25:10;20.70;99.90
7894;DHT22;51343;51.396;6.656;2023-07-28T11:27:37;20.80;99.90
7894;DHT22;51343;51.396;6.656;2023-07-28T11:30:04;20.90;99.90
7894;DHT22;51343;51.396;6.656;2023-07-28T11:32:33;21.20;99.90
7894;DHT22;51343;51.396;6.656;2023-07-28T11:35:04;21.60;99.90
7894;DHT22;51343;51.396;6.656;2023-07-28T11:37:31;22.10;99.90
7894;DHT22;51343;51.396;6.656;2023-07-28T11:40:00;22.20;99.90
7894;DHT22;51343;51.396;6.656;2023-07-28T11:42:28;22.30;99.90
7894;DHT22;51343;51.396;6.656;2023-07-28T11:44:55;22.70;99.90
7894;DHT22;51343;51.396;6.656;2023-07-28T11:47:22;23.10;99.90
7894;DHT22;51343;51.396;6.656;2023-07-28T11:49:48;23.20;99.90
7894;DHT22;51343;51.396;6.656;2023-07-28T11:52:16;22.90;99.90
7894;DHT22;51343;51.396;6.656;2023-07-28T11:54:43;22.70;99.90
7894;DHT22;51343;51.396;6.656;2023-07-28T11:57:11;23.20;99.90
7894;DHT22;51343;51.396;6.656;2023-07-28T11:59:39;23.80;1.00
7894;DHT22;51343;51.396;6.656;2023-07-28T12:02:06;24.10;99.90
7894;DHT22;51343;51.396;6.656;2023-07-28T12:04:35;24.40;99.90
7894;DHT22;51343;51.396;6.656;2023-07-28T12:07:03;24.70;17.60
7894;DHT22;51343;51.396;6.656;2023-07-28T12:09:31;24.60;1.00
7894;DHT22;51343;51.396;6.656;2023-07-28T12:11:58;24.20;99.90
7894;DHT22;51343;51.396;6.656;2023-07-28T12:14:35;24.00;99.90
7894;DHT22;51343;51.396;6.656;2023-07-28T12:17:03;24.10;99.90
7894;DHT22;51343;51.396;6.656;2023-07-28T12:19:40;24.00;99.90
7894;DHT22;51343;51.396;6.656;2023-07-28T12:22:06;24.30;99.90
7894;DHT22;51343;51.396;6.656;2023-07-28T12:24:33;24.30;99.90
7894;DHT22;51343;51.396;6.656;2023-07-28T12:27:00;24.30;99.90
7894;DHT22;51343;51.396;6.656;2023-07-28T12:29:26;24.20;99.90
7894;DHT22;51343;51.396;6.656;2023-07-28T12:31:54;24.00;99.90
7894;DHT22;51343;51.396;6.656;2023-07-28T12:34:21;24.00;99.90
7894;DHT22;51343;51.396;6.656;2023-07-28T12:36:48;24.00;99.90
7894;DHT22;51343;51.396;6.656;2023-07-28T12:39:16;24.00;99.90
7894;DHT22;51343;51.396;6.656;2023-07-28T12:41:43;24.20;99.90
7894;DHT22;51343;51.396;6.656;2023-07-28T12:44:10;24.40;99.90
7894;DHT22;51343;51.396;6.656;2023-07-28T12:46:36;24.70;99.90
7894;DHT22;51343;51.396;6.656;2023-07-28T12:49:04;25.10;99.90
7894;DHT22;51343;51.396;6.656;2023-07-28T12:51:32;25.10;99.90
7894;DHT22;51343;51.396;6.656;2023-07-28T12:53:59;25.00;99.90
7894;DHT22;51343;51.396;6.656;2023-07-28T12:56:25;25.30;99.90
7894;DHT22;51343;51.396;6.656;2023-07-28T12:58:52;25.40;99.90
7894;DHT22;51343;51.396;6.656;2023-07-28T13:01:19;25.20;99.90
7894;DHT22;51343;51.396;6.656;2023-07-28T13:03:45;24.90;99.90
7894;DHT22;51343;51.396;6.656;2023-07-28T13:06:13;24.60;99.90
7894;DHT22;51343;51.396;6.656;2023-07-28T13:08:40;24.30;99.90
7894;DHT22;51343;51.396;6.656;2023-07-28T13:11:07;24.00;99.90
7894;DHT22;51343;51.396;6.656;2023-07-28T13:13:34;23.70;99.90
7894;DHT22;51343;51.396;6.656;2023-07-28T13:16:00;23.50;99.90
7894;DHT22;51343;51.396;6.656;2023-07-28T13:18:27;23.40;99.90
7894;DHT22;51343;51.396;6.656;2023-07-28T13:20:55;23.40;99.90
7894;DHT22;51343;51.396;6.656;2023-07-28T13:23:22;23.40;99.90
7894;DHT22;51343;51.396;6.656;2023-07-28T13:25:49;23.40;99.90
7894;DHT22;51343;51.396;6.656;2023-07-28T13:28:17;23.70;99.90
7894;DHT22;51343;51.396;6.656;2023-07-28T13:30:44;23.90;99.90
7894;DHT22;51343;51.396;6.656;2023-07-28T13:33:10;24.00;99.90
7894;DHT22;51343;51.396;6.656;2023-07-28T13:35:37;24.00;99.90
7894;DHT22;51343;51.396;6.656;2023-07-28T13:38:03;23.90;99.90
7894;DHT22;51343;51.396;6.656;2023-07-28T13:40:31;23.70;99.90
7894;DHT22;51343;51.396;6.656;2023-07-28T13:42:58;23.60;99.90
7894;DHT22;51343;51.396;6.656;2023-07-28T13:45:25;23.70;99.90
7894;DHT22;51343;51.396;6.656;2023-07-28T13:47:51;23.90;99.90
7894;DHT22;51343;51.396;6.656;2023-07-28T13:50:18;24.30;99.90
7894;DHT22;51343;51.396;6.656;2023-07-28T13:52:45;24.30;99.90
7894;DHT22;51343;51.396;6.656;2023-07-28T13:55:11;24.30;99.90
7894;DHT22;51343;51.396;6.656;2023-07-28T13:57:39;24.10;99.90
7894;DHT22;51343;51.396;6.656;2023-07-28T14:00:06;24.00;99.90
7894;DHT22;51343;51.396;6.656;2023-07-28T14:02:34;24.00;99.90
7894;DHT22;51343;51.396;6.656;2023-07-28T14:05:01;23.90;99.90
7894;DHT22;51343;51.396;6.656;2023-07-28T14:07:27;23.90;99.90
7894;DHT22;51343;51.396;6.656;2023-07-28T14:09:54;23.70;99.90
7894;DHT22;51343;51.396;6.656;2023-07-28T14:12:21;23.50;99.90
7894;DHT22;51343;51.396;6.656;2023-07-28T14:14:49;23.40;99.90
7894;DHT22;51343;51.396;6.656;2023-07-28T14:17:16;23.20;99.90
7894;DHT22;51343;51.396;6.656;2023-07-28T14:19:42;23.10;99.90
7894;DHT22;51343;51.396;6.656;2023-07-28T14:22:09;23.00;99.90
7894;DHT22;51343;51.396;6.656;2023-07-28T14:24:36;23.10;99.90
7894;DHT22;51343;51.396;6.656;2023-07-28T14:27:03;23.10;99.90
7894;DHT22;51343;51.396;6.656;2023-07-28T14:29:29;23.00;99.90
7894;DHT22;51343;51.396;6.656;2023-07-28T14:31:57;22.90;99.90
7894;DHT22;51343;51.396;6.656;2023-07-28T14:34:24;22.90;99.90
7894;DHT22;51343;51.396;6.656;2023-07-28T14:36:50;22.90;99.90
7894;DHT22;51343;51.396;6.656;2023-07-28T14:39:17;22.70;99.90
7894;DHT22;51343;51.396;6.656;2023-07-28T14:41:44;22.60;99.90
7894;DHT22;51343;51.396;6.656;2023-07-28T14:44:11;22.60;99.90
7894;DHT22;51343;51.396;6.656;2023-07-28T14:46:37;22.70;99.90
7894;DHT22;51343;51.396;6.656;2023-07-28T14:49:05;23.00;99.90
7894;DHT22;51343;51.396;6.656;2023-07-28T14:51:32;23.30;99.90
7894;DHT22;51343;51.396;6.656;2023-07-28T14:53:58;23.40;99.90
7894;DHT22;51343;51.396;6.656;2023-07-28T14:56:26;23.40;99.90
7894;DHT22;51343;51.396;6.656;2023-07-28T14:58:53;23.30;99.90
7894;DHT22;51343;51.396;6.656;2023-07-28T15:01:20;23.10;99.90
7894;DHT22;51343;51.396;6.656;2023-07-28T15:03:46;23.00;99.90
7894;DHT22;51343;51.396;6.656;2023-07-28T15:06:14;22.90;99.90
7894;DHT22;51343;51.396;6.656;2023-07-28T15:08:41;22.70;99.90
7894;DHT22;51343;51.396;6.656;2023-07-28T15:11:08;22.60;99.90
7894;DHT22;51343;51.396;6.656;2023-07-28T15:13:34;22.60;99.90
7894;DHT22;51343;51.396;6.656;2023-07-28T15:16:01;22.50;99.90
7894;DHT22;51343;51.396;6.656;2023-07-28T15:18:28;22.50;99.90
7894;DHT22;51343;51.396;6.656;2023-07-28T15:20:54;22.60;99.90
7894;DHT22;51343;51.396;6.656;2023-07-28T15:23:22;22.50;99.90
7894;DHT22;51343;51.396;6.656;2023-07-28T15:25:49;22.50;99.90
7894;DHT22;51343;51.396;6.656;2023-07-28T15:28:18;22.50;99.90
7894;DHT22;51343;51.396;6.656;2023-07-28T15:30:44;22.50;99.90
7894;DHT22;51343;51.396;6.656;2023-07-28T15:33:14;22.40;99.90
7894;DHT22;51343;51.396;6.656;2023-07-28T15:35:41;22.40;99.90
7894;DHT22;51343;51.396;6.656;2023-07-28T15:38:08;22.40;99.90
7894;DHT22;51343;51.396;6.656;2023-07-28T15:40:36;22.40;99.90
7894;DHT22;51343;51.396;6.656;2023-07-28T15:43:02;22.40;99.90
7894;DHT22;51343;51.396;6.656;2023-07-28T15:45:29;22.40;99.90
7894;DHT22;51343;51.396;6.656;2023-07-28T15:47:56;22.40;99.90
7894;DHT22;51343;51.396;6.656;2023-07-28T15:50:23;22.40;99.90
7894;DHT22;51343;51.396;6.656;2023-07-28T15:52:50;22.40;99.90
7894;DHT22;51343;51.396;6.656;2023-07-28T15:55:17;22.40;99.90
7894;DHT22;51343;51.396;6.656;2023-07-28T15:57:45;22.30;99.90
7894;DHT22;51343;51.396;6.656;2023-07-28T16:00:11;22.20;99.90